sensor_id;sensor_type;location;lat;lon;timestamp;P1;durP1;ratioP1;P2;durP2;ratioP2
74922;SDS011;64715;44.760;37.678;2023-01-24T00:00:38;19.88;;;5.50;;
74922;SDS011;64715;44.760;37.678;2023-01-24T00:01:40;16.15;;;5.60;;
74922;SDS011;64715;44.760;37.678;2023-01-24T00:02:41;17.70;;;5.68;;
74922;SDS011;64715;44.760;37.678;2023-01-24T00:03:42;16.63;;;5.18;;
74922;SDS011;64715;44.760;37.678;2023-01-24T00:04:43;15.98;;;5.55;;
74922;SDS011;64715;44.760;37.678;2023-01-24T00:05:45;18.13;;;5.40;;
74922;SDS011;64715;44.760;37.678;2023-01-24T00:06:47;15.30;;;5.47;;
74922;SDS011;64715;44.760;37.678;2023-01-24T00:07:48;17.25;;;5.40;;
74922;SDS011;64715;44.760;37.678;2023-01-24T00:08:49;17.80;;;5.20;;
74922;SDS011;64715;44.760;37.678;2023-01-24T00:09:50;16.00;;;5.20;;
74922;SDS011;64715;44.760;37.678;2023-01-24T00:11:24;19.63;;;5.00;;
74922;SDS011;64715;44.760;37.678;2023-01-24T00:12:18;15.85;;;4.88;;
74922;SDS011;64715;44.760;37.678;2023-01-24T00:13:19;15.07;;;5.07;;
74922;SDS011;64715;44.760;37.678;2023-01-24T00:14:20;16.52;;;4.78;;
74922;SDS011;64715;44.760;37.678;2023-01-24T00:15:21;17.15;;;5.47;;
74922;SDS011;64715;44.760;37.678;2023-01-24T00:16:22;16.70;;;5.03;;
74922;SDS011;64715;44.760;37.678;2023-01-24T00:17:23;13.90;;;4.60;;
74922;SDS011;64715;44.760;37.678;2023-01-24T00:18:24;12.65;;;4.20;;
74922;SDS011;64715;44.760;37.678;2023-01-24T00:19:25;13.75;;;4.72;;
74922;SDS011;64715;44.760;37.678;2023-01-24T00:20:26;15.95;;;4.95;;
74922;SDS011;64715;44.760;37.678;2023-01-24T00:21:27;16.48;;;4.82;;
74922;SDS011;64715;44.760;37.678;2023-01-24T00:22:28;15.98;;;4.47;;
74922;SDS011;64715;44.760;37.678;2023-01-24T00:23:29;14.60;;;4.50;;
74922;SDS011;64715;44.760;37.678;2023-01-24T00:24:30;15.50;;;4.90;;
74922;SDS011;64715;44.760;37.678;2023-01-24T00:25:33;18.58;;;5.43;;
74922;SDS011;64715;44.760;37.678;2023-01-24T00:26:34;16.70;;;5.20;;
74922;SDS011;64715;44.760;37.678;2023-01-24T00:27:35;15.50;;;4.70;;
74922;SDS011;64715;44.760;37.678;2023-01-24T00:28:36;16.85;;;4.85;;
74922;SDS011;64715;44.760;37.678;2023-01-24T00:29:38;15.55;;;4.80;;
74922;SDS011;64715;44.760;37.678;2023-01-24T00:30:39;17.50;;;4.95;;
74922;SDS011;64715;44.760;37.678;2023-01-24T00:31:41;16.60;;;5.20;;
74922;SDS011;64715;44.760;37.678;2023-01-24T00:32:42;15.95;;;5.40;;
74922;SDS011;64715;44.760;37.678;2023-01-24T00:33:43;16.45;;;5.22;;
74922;SDS011;64715;44.760;37.678;2023-01-24T00:34:44;16.85;;;5.38;;
74922;SDS011;64715;44.760;37.678;2023-01-24T00:35:46;16.90;;;5.45;;
74922;SDS011;64715;44.760;37.678;2023-01-24T00:36:49;16.63;;;5.38;;
74922;SDS011;64715;44.760;37.678;2023-01-24T00:37:50;20.27;;;6.00;;
74922;SDS011;64715;44.760;37.678;2023-01-24T00:38:52;20.35;;;5.97;;
74922;SDS011;64715;44.760;37.678;2023-01-24T00:39:55;17.98;;;5.63;;
74922;SDS011;64715;44.760;37.678;2023-01-24T00:40:56;18.95;;;5.70;;
74922;SDS011;64715;44.760;37.678;2023-01-24T00:41:58;18.65;;;6.93;;
74922;SDS011;64715;44.760;37.678;2023-01-24T00:42:59;16.38;;;5.75;;
74922;SDS011;64715;44.760;37.678;2023-01-24T00:44:00;17.93;;;5.87;;
74922;SDS011;64715;44.760;37.678;2023-01-24T00:45:02;16.63;;;5.60;;
74922;SDS011;64715;44.760;37.678;2023-01-24T00:46:06;18.02;;;6.15;;
74922;SDS011;64715;44.760;37.678;2023-01-24T00:47:08;18.42;;;5.80;;
74922;SDS011;64715;44.760;37.678;2023-01-24T00:48:11;21.88;;;6.03;;
74922;SDS011;64715;44.760;37.678;2023-01-24T00:49:13;16.02;;;5.75;;
74922;SDS011;64715;44.760;37.678;2023-01-24T00:50:15;19.85;;;6.13;;
74922;SDS011;64715;44.760;37.678;2023-01-24T00:51:16;19.90;;;6.00;;
74922;SDS011;64715;44.760;37.678;2023-01-24T00:52:17;19.10;;;5.97;;
74922;SDS011;64715;44.760;37.678;2023-01-24T00:53:18;14.90;;;4.97;;
74922;SDS011;64715;44.760;37.678;2023-01-24T00:54:20;20.65;;;6.15;;
74922;SDS011;64715;44.760;37.678;2023-01-24T00:55:22;17.90;;;6.03;;
74922;SDS011;64715;44.760;37.678;2023-01-24T00:56:23;17.33;;;5.20;;
74922;SDS011;64715;44.760;37.678;2023-01-24T00:57:24;16.77;;;5.38;;
74922;SDS011;64715;44.760;37.678;2023-01-24T00:58:25;19.50;;;5.63;;
74922;SDS011;64715;44.760;37.678;2023-01-24T00:59:27;17.23;;;5.47;;
74922;SDS011;64715;44.760;37.678;2023-01-24T01:00:28;19.63;;;5.88;;
74922;SDS011;64715;44.760;37.678;2023-01-24T01:01:28;16.63;;;6.10;;
74922;SDS011;64715;44.760;37.678;2023-01-24T01:02:29;18.20;;;5.22;;
74922;SDS011;64715;44.760;37.678;2023-01-24T01:03:31;17.13;;;5.57;;
74922;SDS011;64715;44.760;37.678;2023-01-24T01:04:32;19.52;;;5.53;;
74922;SDS011;64715;44.760;37.678;2023-01-24T01:05:33;19.40;;;5.38;;
74922;SDS011;64715;44.760;37.678;2023-01-24T01:06:34;17.73;;;5.43;;
74922;SDS011;64715;44.760;37.678;2023-01-24T01:07:36;17.92;;;5.45;;
74922;SDS011;64715;44.760;37.678;2023-01-24T01:08:37;15.37;;;5.73;;
74922;SDS011;64715;44.760;37.678;2023-01-24T01:09:40;16.25;;;5.40;;
74922;SDS011;64715;44.760;37.678;2023-01-24T01:10:41;19.70;;;5.13;;
74922;SDS011;64715;44.760;37.678;2023-01-24T01:11:42;20.10;;;5.35;;
74922;SDS011;64715;44.760;37.678;2023-01-24T01:12:44;17.25;;;5.43;;
74922;SDS011;64715;44.760;37.678;2023-01-24T01:13:45;17.52;;;5.13;;
74922;SDS011;64715;44.760;37.678;2023-01-24T01:14:49;17.40;;;5.63;;
74922;SDS011;64715;44.760;37.678;2023-01-24T01:15:50;17.58;;;5.72;;
74922;SDS011;64715;44.760;37.678;2023-01-24T01:16:51;18.23;;;5.53;;
74922;SDS011;64715;44.760;37.678;2023-01-24T01:17:52;15.93;;;5.45;;
74922;SDS011;64715;44.760;37.678;2023-01-24T01:18:54;18.73;;;5.55;;
74922;SDS011;64715;44.760;37.678;2023-01-24T01:19:56;15.18;;;5.60;;
74922;SDS011;64715;44.760;37.678;2023-01-24T01:20:58;16.23;;;5.35;;
74922;SDS011;64715;44.760;37.678;2023-01-24T01:22:01;17.08;;;5.57;;
74922;SDS011;64715;44.760;37.678;2023-01-24T01:23:02;18.55;;;5.82;;
74922;SDS011;64715;44.760;37.678;2023-01-24T01:24:03;19.98;;;6.50;;
74922;SDS011;64715;44.760;37.678;2023-01-24T01:25:05;22.23;;;6.00;;
74922;SDS011;64715;44.760;37.678;2023-01-24T01:26:06;15.85;;;5.45;;
74922;SDS011;64715;44.760;37.678;2023-01-24T01:27:10;18.60;;;5.95;;
74922;SDS011;64715;44.760;37.678;2023-01-24T01:28:11;18.52;;;5.68;;
74922;SDS011;64715;44.760;37.678;2023-01-24T01:29:12;16.90;;;5.28;;
74922;SDS011;64715;44.760;37.678;2023-01-24T01:30:13;19.50;;;5.95;;
74922;SDS011;64715;44.760;37.678;2023-01-24T01:31:15;18.35;;;5.88;;
74922;SDS011;64715;44.760;37.678;2023-01-24T01:32:16;18.17;;;5.63;;
74922;SDS011;64715;44.760;37.678;2023-01-24T01:33:17;16.92;;;5.55;;
74922;SDS011;64715;44.760;37.678;2023-01-24T01:34:18;16.70;;;5.63;;
74922;SDS011;64715;44.760;37.678;2023-01-24T01:35:20;16.42;;;4.93;;
74922;SDS011;64715;44.760;37.678;2023-01-24T01:36:21;15.55;;;5.25;;
74922;SDS011;64715;44.760;37.678;2023-01-24T01:37:22;15.20;;;5.00;;
74922;SDS011;64715;44.760;37.678;2023-01-24T01:38:23;16.88;;;5.03;;
74922;SDS011;64715;44.760;37.678;2023-01-24T01:39:25;18.27;;;5.35;;
74922;SDS011;64715;44.760;37.678;2023-01-24T01:40:26;19.92;;;5.07;;
74922;SDS011;64715;44.760;37.678;2023-01-24T01:41:27;17.48;;;5.20;;
74922;SDS011;64715;44.760;37.678;2023-01-24T01:43:47;18.38;;;5.00;;
74922;SDS011;64715;44.760;37.678;2023-01-24T01:46:45;15.75;;;4.75;;
74922;SDS011;64715;44.760;37.678;2023-01-24T01:47:49;18.23;;;5.28;;
74922;SDS011;64715;44.760;37.678;2023-01-24T01:48:51;15.48;;;5.25;;
74922;SDS011;64715;44.760;37.678;2023-01-24T01:51:31;18.05;;;5.15;;
74922;SDS011;64715;44.760;37.678;2023-01-24T01:52:44;17.17;;;4.77;;
74922;SDS011;64715;44.760;37.678;2023-01-24T01:53:49;17.98;;;4.93;;
74922;SDS011;64715;44.760;37.678;2023-01-24T01:55:07;14.13;;;4.65;;
74922;SDS011;64715;44.760;37.678;2023-01-24T01:56:24;15.63;;;4.82;;
74922;SDS011;64715;44.760;37.678;2023-01-24T01:57:30;15.48;;;5.15;;
74922;SDS011;64715;44.760;37.678;2023-01-24T01:58:32;15.07;;;4.70;;
74922;SDS011;64715;44.760;37.678;2023-01-24T01:59:35;16.70;;;4.97;;
74922;SDS011;64715;44.760;37.678;2023-01-24T02:00:58;16.67;;;5.28;;
74922;SDS011;64715;44.760;37.678;2023-01-24T02:01:59;18.02;;;4.97;;
74922;SDS011;64715;44.760;37.678;2023-01-24T02:03:04;18.45;;;5.15;;
74922;SDS011;64715;44.760;37.678;2023-01-24T02:04:32;15.50;;;4.17;;
74922;SDS011;64715;44.760;37.678;2023-01-24T02:05:37;17.02;;;4.93;;
74922;SDS011;64715;44.760;37.678;2023-01-24T02:08:01;15.73;;;5.30;;
74922;SDS011;64715;44.760;37.678;2023-01-24T02:09:07;14.68;;;5.25;;
74922;SDS011;64715;44.760;37.678;2023-01-24T02:10:10;17.50;;;4.85;;
74922;SDS011;64715;44.760;37.678;2023-01-24T02:11:12;17.55;;;5.10;;
74922;SDS011;64715;44.760;37.678;2023-01-24T02:12:35;19.00;;;5.43;;
74922;SDS011;64715;44.760;37.678;2023-01-24T02:13:40;19.90;;;5.50;;
74922;SDS011;64715;44.760;37.678;2023-01-24T02:14:45;19.17;;;5.23;;
74922;SDS011;64715;44.760;37.678;2023-01-24T02:16:08;21.17;;;5.38;;
74922;SDS011;64715;44.760;37.678;2023-01-24T02:17:10;52.38;;;6.75;;
74922;SDS011;64715;44.760;37.678;2023-01-24T02:18:11;90.43;;;8.15;;
74922;SDS011;64715;44.760;37.678;2023-01-24T02:19:26;29.35;;;5.68;;
74922;SDS011;64715;44.760;37.678;2023-01-24T02:20:43;17.65;;;5.82;;
74922;SDS011;64715;44.760;37.678;2023-01-24T02:21:46;20.63;;;5.05;;
74922;SDS011;64715;44.760;37.678;2023-01-24T02:24:02;31.00;;;6.82;;
74922;SDS011;64715;44.760;37.678;2023-01-24T02:26:40;17.87;;;5.30;;
74922;SDS011;64715;44.760;37.678;2023-01-24T02:27:41;15.80;;;5.15;;
74922;SDS011;64715;44.760;37.678;2023-01-24T02:30:21;20.25;;;5.30;;
74922;SDS011;64715;44.760;37.678;2023-01-24T02:31:22;19.65;;;5.78;;
74922;SDS011;64715;44.760;37.678;2023-01-24T02:32:24;20.30;;;6.50;;
74922;SDS011;64715;44.760;37.678;2023-01-24T02:33:26;19.27;;;5.75;;
74922;SDS011;64715;44.760;37.678;2023-01-24T02:34:28;22.48;;;6.22;;
74922;SDS011;64715;44.760;37.678;2023-01-24T02:35:30;21.52;;;5.90;;
74922;SDS011;64715;44.760;37.678;2023-01-24T02:36:33;18.67;;;6.03;;
74922;SDS011;64715;44.760;37.678;2023-01-24T02:37:38;20.35;;;6.18;;
74922;SDS011;64715;44.760;37.678;2023-01-24T02:38:39;20.13;;;6.15;;
74922;SDS011;64715;44.760;37.678;2023-01-24T02:39:44;18.13;;;5.97;;
74922;SDS011;64715;44.760;37.678;2023-01-24T02:40:55;19.98;;;5.82;;
74922;SDS011;64715;44.760;37.678;2023-01-24T02:42:13;18.25;;;5.75;;
74922;SDS011;64715;44.760;37.678;2023-01-24T02:43:20;19.40;;;6.05;;
74922;SDS011;64715;44.760;37.678;2023-01-24T02:44:40;17.45;;;5.70;;
74922;SDS011;64715;44.760;37.678;2023-01-24T02:45:52;17.20;;;5.97;;
74922;SDS011;64715;44.760;37.678;2023-01-24T02:46:53;20.40;;;5.93;;
74922;SDS011;64715;44.760;37.678;2023-01-24T02:47:54;17.17;;;5.82;;
74922;SDS011;64715;44.760;37.678;2023-01-24T02:48:56;19.88;;;6.00;;
74922;SDS011;64715;44.760;37.678;2023-01-24T02:50:00;19.98;;;5.60;;
74922;SDS011;64715;44.760;37.678;2023-01-24T02:51:02;18.48;;;6.20;;
74922;SDS011;64715;44.760;37.678;2023-01-24T02:52:22;20.58;;;6.22;;
74922;SDS011;64715;44.760;37.678;2023-01-24T02:53:41;18.40;;;6.00;;
74922;SDS011;64715;44.760;37.678;2023-01-24T02:54:42;19.55;;;6.03;;
74922;SDS011;64715;44.760;37.678;2023-01-24T02:55:43;17.65;;;6.28;;
74922;SDS011;64715;44.760;37.678;2023-01-24T02:57:04;22.07;;;6.33;;
74922;SDS011;64715;44.760;37.678;2023-01-24T02:58:23;20.23;;;5.95;;
74922;SDS011;64715;44.760;37.678;2023-01-24T02:59:25;22.60;;;6.03;;
74922;SDS011;64715;44.760;37.678;2023-01-24T03:00:27;17.83;;;6.45;;
74922;SDS011;64715;44.760;37.678;2023-01-24T03:01:28;23.60;;;6.80;;
74922;SDS011;64715;44.760;37.678;2023-01-24T03:02:31;21.27;;;6.53;;
74922;SDS011;64715;44.760;37.678;2023-01-24T03:03:34;19.55;;;6.22;;
74922;SDS011;64715;44.760;37.678;2023-01-24T03:04:35;22.95;;;6.57;;
74922;SDS011;64715;44.760;37.678;2023-01-24T03:05:36;22.25;;;7.03;;
74922;SDS011;64715;44.760;37.678;2023-01-24T03:07:01;22.65;;;7.18;;
74922;SDS011;64715;44.760;37.678;2023-01-24T03:08:02;20.77;;;6.37;;
74922;SDS011;64715;44.760;37.678;2023-01-24T03:09:04;18.55;;;6.50;;
74922;SDS011;64715;44.760;37.678;2023-01-24T03:10:19;20.63;;;6.22;;
74922;SDS011;64715;44.760;37.678;2023-01-24T03:11:26;17.58;;;5.68;;
74922;SDS011;64715;44.760;37.678;2023-01-24T03:12:27;22.10;;;6.57;;
74922;SDS011;64715;44.760;37.678;2023-01-24T03:13:46;16.13;;;5.72;;
74922;SDS011;64715;44.760;37.678;2023-01-24T03:15:06;17.92;;;5.20;;
74922;SDS011;64715;44.760;37.678;2023-01-24T03:16:26;17.55;;;5.47;;
74922;SDS011;64715;44.760;37.678;2023-01-24T03:17:45;20.83;;;6.35;;
74922;SDS011;64715;44.760;37.678;2023-01-24T03:19:07;20.07;;;5.77;;
74922;SDS011;64715;44.760;37.678;2023-01-24T03:20:27;19.08;;;5.78;;
74922;SDS011;64715;44.760;37.678;2023-01-24T03:21:47;16.73;;;5.40;;
74922;SDS011;64715;44.760;37.678;2023-01-24T03:23:06;20.77;;;5.80;;
74922;SDS011;64715;44.760;37.678;2023-01-24T03:24:26;18.42;;;5.80;;
74922;SDS011;64715;44.760;37.678;2023-01-24T03:25:46;17.60;;;5.35;;
74922;SDS011;64715;44.760;37.678;2023-01-24T03:27:06;17.73;;;6.03;;
74922;SDS011;64715;44.760;37.678;2023-01-24T03:28:25;17.63;;;5.50;;
74922;SDS011;64715;44.760;37.678;2023-01-24T03:29:45;18.70;;;5.85;;
74922;SDS011;64715;44.760;37.678;2023-01-24T03:31:07;18.90;;;6.03;;
74922;SDS011;64715;44.760;37.678;2023-01-24T03:32:28;19.80;;;5.57;;
74922;SDS011;64715;44.760;37.678;2023-01-24T03:33:48;18.67;;;5.60;;
74922;SDS011;64715;44.760;37.678;2023-01-24T03:35:08;18.58;;;6.55;;
74922;SDS011;64715;44.760;37.678;2023-01-24T03:36:09;17.73;;;6.00;;
74922;SDS011;64715;44.760;37.678;2023-01-24T03:37:22;18.38;;;5.90;;
74922;SDS011;64715;44.760;37.678;2023-01-24T03:38:44;16.38;;;5.25;;
74922;SDS011;64715;44.760;37.678;2023-01-24T03:40:13;20.77;;;5.90;;
74922;SDS011;64715;44.760;37.678;2023-01-24T03:41:18;17.98;;;5.65;;
74922;SDS011;64715;44.760;37.678;2023-01-24T03:42:19;17.98;;;5.85;;
74922;SDS011;64715;44.760;37.678;2023-01-24T03:43:21;19.80;;;5.78;;
74922;SDS011;64715;44.760;37.678;2023-01-24T03:44:22;21.25;;;6.32;;
74922;SDS011;64715;44.760;37.678;2023-01-24T03:45:28;20.90;;;6.07;;
74922;SDS011;64715;44.760;37.678;2023-01-24T03:46:31;20.67;;;6.28;;
74922;SDS011;64715;44.760;37.678;2023-01-24T03:47:32;19.17;;;6.40;;
74922;SDS011;64715;44.760;37.678;2023-01-24T03:48:33;22.02;;;6.72;;
74922;SDS011;64715;44.760;37.678;2023-01-24T03:49:39;19.33;;;6.25;;
74922;SDS011;64715;44.760;37.678;2023-01-24T03:50:59;40.00;;;7.13;;
74922;SDS011;64715;44.760;37.678;2023-01-24T03:52:18;21.03;;;5.67;;
74922;SDS011;64715;44.760;37.678;2023-01-24T03:53:27;19.58;;;5.72;;
74922;SDS011;64715;44.760;37.678;2023-01-24T03:54:30;21.95;;;5.60;;
74922;SDS011;64715;44.760;37.678;2023-01-24T03:55:36;21.45;;;5.70;;
74922;SDS011;64715;44.760;37.678;2023-01-24T03:56:37;20.05;;;5.55;;
74922;SDS011;64715;44.760;37.678;2023-01-24T03:57:39;22.60;;;5.45;;
74922;SDS011;64715;44.760;37.678;2023-01-24T03:58:41;21.08;;;5.53;;
74922;SDS011;64715;44.760;37.678;2023-01-24T03:59:45;22.77;;;5.15;;
74922;SDS011;64715;44.760;37.678;2023-01-24T04:00:46;18.65;;;5.50;;
74922;SDS011;64715;44.760;37.678;2023-01-24T04:02:14;19.80;;;5.40;;
74922;SDS011;64715;44.760;37.678;2023-01-24T04:03:16;18.93;;;4.87;;
74922;SDS011;64715;44.760;37.678;2023-01-24T04:04:17;19.23;;;5.55;;
74922;SDS011;64715;44.760;37.678;2023-01-24T04:05:18;20.00;;;4.82;;
74922;SDS011;64715;44.760;37.678;2023-01-24T04:06:20;17.88;;;5.38;;
74922;SDS011;64715;44.760;37.678;2023-01-24T04:07:21;16.77;;;4.72;;
74922;SDS011;64715;44.760;37.678;2023-01-24T04:08:22;28.20;;;5.72;;
74922;SDS011;64715;44.760;37.678;2023-01-24T04:09:23;17.13;;;5.30;;
74922;SDS011;64715;44.760;37.678;2023-01-24T04:10:24;19.08;;;5.88;;
74922;SDS011;64715;44.760;37.678;2023-01-24T04:11:26;22.20;;;5.70;;
74922;SDS011;64715;44.760;37.678;2023-01-24T04:12:32;18.00;;;6.32;;
74922;SDS011;64715;44.760;37.678;2023-01-24T04:13:34;24.67;;;6.57;;
74922;SDS011;64715;44.760;37.678;2023-01-24T04:14:35;27.08;;;7.85;;
74922;SDS011;64715;44.760;37.678;2023-01-24T04:15:42;32.53;;;8.82;;
74922;SDS011;64715;44.760;37.678;2023-01-24T04:17:05;49.22;;;9.77;;
74922;SDS011;64715;44.760;37.678;2023-01-24T04:18:16;59.85;;;9.77;;
74922;SDS011;64715;44.760;37.678;2023-01-24T04:19:17;44.33;;;9.45;;
74922;SDS011;64715;44.760;37.678;2023-01-24T04:20:18;76.53;;;12.65;;
74922;SDS011;64715;44.760;37.678;2023-01-24T04:21:19;71.50;;;10.43;;
74922;SDS011;64715;44.760;37.678;2023-01-24T04:22:20;59.95;;;9.85;;
74922;SDS011;64715;44.760;37.678;2023-01-24T04:23:21;57.15;;;10.52;;
74922;SDS011;64715;44.760;37.678;2023-01-24T04:24:22;44.55;;;9.07;;
74922;SDS011;64715;44.760;37.678;2023-01-24T04:25:24;47.65;;;9.15;;
74922;SDS011;64715;44.760;37.678;2023-01-24T04:26:25;30.85;;;8.45;;
74922;SDS011;64715;44.760;37.678;2023-01-24T04:27:27;25.30;;;8.25;;
74922;SDS011;64715;44.760;37.678;2023-01-24T04:28:36;24.10;;;7.47;;
74922;SDS011;64715;44.760;37.678;2023-01-24T04:29:37;29.88;;;7.10;;
74922;SDS011;64715;44.760;37.678;2023-01-24T04:30:39;29.65;;;7.22;;
74922;SDS011;64715;44.760;37.678;2023-01-24T04:31:50;24.33;;;7.13;;
74922;SDS011;64715;44.760;37.678;2023-01-24T04:33:10;23.10;;;6.15;;
74922;SDS011;64715;44.760;37.678;2023-01-24T04:34:14;21.85;;;6.47;;
74922;SDS011;64715;44.760;37.678;2023-01-24T04:35:18;29.20;;;8.00;;
74922;SDS011;64715;44.760;37.678;2023-01-24T04:36:24;38.65;;;10.98;;
74922;SDS011;64715;44.760;37.678;2023-01-24T04:37:26;31.60;;;10.80;;
74922;SDS011;64715;44.760;37.678;2023-01-24T04:38:27;36.55;;;9.50;;
74922;SDS011;64715;44.760;37.678;2023-01-24T04:39:35;23.35;;;8.13;;
74922;SDS011;64715;44.760;37.678;2023-01-24T04:41:00;21.05;;;7.40;;
74922;SDS011;64715;44.760;37.678;2023-01-24T04:42:06;32.22;;;7.15;;
74922;SDS011;64715;44.760;37.678;2023-01-24T04:43:07;18.27;;;6.23;;
74922;SDS011;64715;44.760;37.678;2023-01-24T04:44:08;17.17;;;5.80;;
74922;SDS011;64715;44.760;37.678;2023-01-24T04:45:10;19.23;;;5.35;;
74922;SDS011;64715;44.760;37.678;2023-01-24T04:46:12;18.42;;;5.70;;
74922;SDS011;64715;44.760;37.678;2023-01-24T04:47:39;19.67;;;5.55;;
74922;SDS011;64715;44.760;37.678;2023-01-24T04:48:40;17.90;;;4.85;;
74922;SDS011;64715;44.760;37.678;2023-01-24T04:49:43;15.93;;;5.00;;
74922;SDS011;64715;44.760;37.678;2023-01-24T04:50:47;28.38;;;5.28;;
74922;SDS011;64715;44.760;37.678;2023-01-24T04:51:49;28.63;;;5.68;;
74922;SDS011;64715;44.760;37.678;2023-01-24T04:52:58;44.67;;;6.83;;
74922;SDS011;64715;44.760;37.678;2023-01-24T04:53:59;26.33;;;5.75;;
74922;SDS011;64715;44.760;37.678;2023-01-24T04:55:03;21.52;;;5.10;;
74922;SDS011;64715;44.760;37.678;2023-01-24T04:56:05;16.75;;;5.10;;
74922;SDS011;64715;44.760;37.678;2023-01-24T04:57:09;17.40;;;5.20;;
74922;SDS011;64715;44.760;37.678;2023-01-24T04:58:11;19.92;;;5.50;;
74922;SDS011;64715;44.760;37.678;2023-01-24T04:59:13;24.38;;;6.13;;
74922;SDS011;64715;44.760;37.678;2023-01-24T05:00:17;18.40;;;5.32;;
74922;SDS011;64715;44.760;37.678;2023-01-24T05:01:18;34.88;;;5.55;;
74922;SDS011;64715;44.760;37.678;2023-01-24T05:02:42;26.20;;;5.53;;
74922;SDS011;64715;44.760;37.678;2023-01-24T05:03:43;19.07;;;5.17;;
74922;SDS011;64715;44.760;37.678;2023-01-24T05:04:44;18.17;;;5.00;;
74922;SDS011;64715;44.760;37.678;2023-01-24T05:05:50;21.00;;;6.10;;
74922;SDS011;64715;44.760;37.678;2023-01-24T05:06:51;22.65;;;6.13;;
74922;SDS011;64715;44.760;37.678;2023-01-24T05:07:53;28.27;;;5.72;;
74922;SDS011;64715;44.760;37.678;2023-01-24T05:08:55;21.75;;;5.90;;
74922;SDS011;64715;44.760;37.678;2023-01-24T05:10:00;29.75;;;6.13;;
74922;SDS011;64715;44.760;37.678;2023-01-24T05:11:02;16.17;;;5.63;;
74922;SDS011;64715;44.760;37.678;2023-01-24T05:12:11;21.60;;;6.50;;
74922;SDS011;64715;44.760;37.678;2023-01-24T05:13:12;17.65;;;6.55;;
74922;SDS011;64715;44.760;37.678;2023-01-24T05:14:13;20.27;;;6.17;;
74922;SDS011;64715;44.760;37.678;2023-01-24T05:15:15;18.92;;;6.63;;
74922;SDS011;64715;44.760;37.678;2023-01-24T05:16:18;27.58;;;6.95;;
74922;SDS011;64715;44.760;37.678;2023-01-24T05:17:20;20.85;;;6.50;;
74922;SDS011;64715;44.760;37.678;2023-01-24T05:18:21;25.02;;;6.80;;
74922;SDS011;64715;44.760;37.678;2023-01-24T05:19:22;17.90;;;6.38;;
74922;SDS011;64715;44.760;37.678;2023-01-24T05:20:23;20.20;;;5.45;;
74922;SDS011;64715;44.760;37.678;2023-01-24T05:21:25;23.90;;;5.82;;
74922;SDS011;64715;44.760;37.678;2023-01-24T05:22:26;21.45;;;5.97;;
74922;SDS011;64715;44.760;37.678;2023-01-24T05:23:27;17.03;;;5.40;;
74922;SDS011;64715;44.760;37.678;2023-01-24T05:24:29;18.42;;;5.82;;
74922;SDS011;64715;44.760;37.678;2023-01-24T05:25:30;18.63;;;6.05;;
74922;SDS011;64715;44.760;37.678;2023-01-24T05:26:31;33.60;;;7.93;;
74922;SDS011;64715;44.760;37.678;2023-01-24T05:27:33;27.33;;;10.18;;
74922;SDS011;64715;44.760;37.678;2023-01-24T05:28:36;38.45;;;11.25;;
74922;SDS011;64715;44.760;37.678;2023-01-24T05:29:37;40.83;;;10.60;;
74922;SDS011;64715;44.760;37.678;2023-01-24T05:30:39;35.92;;;8.40;;
74922;SDS011;64715;44.760;37.678;2023-01-24T05:31:51;30.33;;;8.65;;
74922;SDS011;64715;44.760;37.678;2023-01-24T05:32:56;25.57;;;8.03;;
74922;SDS011;64715;44.760;37.678;2023-01-24T05:33:57;28.30;;;7.40;;
74922;SDS011;64715;44.760;37.678;2023-01-24T05:34:58;30.35;;;7.93;;
74922;SDS011;64715;44.760;37.678;2023-01-24T05:36:03;65.47;;;10.38;;
74922;SDS011;64715;44.760;37.678;2023-01-24T05:37:09;135.27;;;15.38;;
74922;SDS011;64715;44.760;37.678;2023-01-24T05:38:13;104.22;;;12.70;;
74922;SDS011;64715;44.760;37.678;2023-01-24T05:39:16;68.38;;;10.65;;
74922;SDS011;64715;44.760;37.678;2023-01-24T05:40:18;57.38;;;9.73;;
74922;SDS011;64715;44.760;37.678;2023-01-24T05:41:20;55.38;;;7.70;;
74922;SDS011;64715;44.760;37.678;2023-01-24T05:42:23;27.58;;;6.57;;
74922;SDS011;64715;44.760;37.678;2023-01-24T05:43:29;23.70;;;6.27;;
74922;SDS011;64715;44.760;37.678;2023-01-24T05:44:30;31.33;;;7.00;;
74922;SDS011;64715;44.760;37.678;2023-01-24T05:45:35;29.42;;;7.13;;
74922;SDS011;64715;44.760;37.678;2023-01-24T05:46:36;39.80;;;6.40;;
74922;SDS011;64715;44.760;37.678;2023-01-24T05:47:47;29.25;;;6.97;;
74922;SDS011;64715;44.760;37.678;2023-01-24T05:48:50;38.75;;;7.45;;
74922;SDS011;64715;44.760;37.678;2023-01-24T05:49:52;39.58;;;6.43;;
74922;SDS011;64715;44.760;37.678;2023-01-24T05:51:01;27.85;;;6.72;;
74922;SDS011;64715;44.760;37.678;2023-01-24T05:52:03;30.73;;;6.78;;
74922;SDS011;64715;44.760;37.678;2023-01-24T05:53:25;45.47;;;7.28;;
74922;SDS011;64715;44.760;37.678;2023-01-24T05:54:27;31.17;;;7.20;;
74922;SDS011;64715;44.760;37.678;2023-01-24T05:55:38;28.52;;;7.97;;
74922;SDS011;64715;44.760;37.678;2023-01-24T05:56:40;42.92;;;8.50;;
74922;SDS011;64715;44.760;37.678;2023-01-24T05:57:41;84.07;;;12.57;;
74922;SDS011;64715;44.760;37.678;2023-01-24T05:58:52;71.28;;;10.70;;
74922;SDS011;64715;44.760;37.678;2023-01-24T05:59:53;62.97;;;10.88;;
74922;SDS011;64715;44.760;37.678;2023-01-24T06:00:54;47.70;;;9.23;;
74922;SDS011;64715;44.760;37.678;2023-01-24T06:02:03;69.43;;;10.00;;
74922;SDS011;64715;44.760;37.678;2023-01-24T06:03:05;35.67;;;8.80;;
74922;SDS011;64715;44.760;37.678;2023-01-24T06:04:06;37.50;;;10.02;;
74922;SDS011;64715;44.760;37.678;2023-01-24T06:05:08;35.22;;;10.48;;
74922;SDS011;64715;44.760;37.678;2023-01-24T06:06:10;30.75;;;6.95;;
74922;SDS011;64715;44.760;37.678;2023-01-24T06:07:11;22.40;;;6.68;;
74922;SDS011;64715;44.760;37.678;2023-01-24T06:08:14;22.13;;;6.60;;
74922;SDS011;64715;44.760;37.678;2023-01-24T06:09:17;18.83;;;6.40;;
74922;SDS011;64715;44.760;37.678;2023-01-24T06:10:18;35.45;;;17.55;;
74922;SDS011;64715;44.760;37.678;2023-01-24T06:11:27;37.08;;;18.55;;
74922;SDS011;64715;44.760;37.678;2023-01-24T06:12:41;25.73;;;9.40;;
74922;SDS011;64715;44.760;37.678;2023-01-24T06:13:42;21.40;;;7.07;;
74922;SDS011;64715;44.760;37.678;2023-01-24T06:14:45;42.20;;;7.45;;
74922;SDS011;64715;44.760;37.678;2023-01-24T06:15:46;27.17;;;6.68;;
74922;SDS011;64715;44.760;37.678;2023-01-24T06:16:47;25.02;;;6.25;;
74922;SDS011;64715;44.760;37.678;2023-01-24T06:17:49;20.67;;;6.30;;
74922;SDS011;64715;44.760;37.678;2023-01-24T06:18:51;34.85;;;6.88;;
74922;SDS011;64715;44.760;37.678;2023-01-24T06:19:54;20.70;;;6.53;;
74922;SDS011;64715;44.760;37.678;2023-01-24T06:20:57;18.65;;;6.00;;
74922;SDS011;64715;44.760;37.678;2023-01-24T06:22:01;73.65;;;9.77;;
74922;SDS011;64715;44.760;37.678;2023-01-24T06:23:13;79.83;;;12.00;;
74922;SDS011;64715;44.760;37.678;2023-01-24T06:24:29;27.33;;;7.00;;
74922;SDS011;64715;44.760;37.678;2023-01-24T06:25:57;19.08;;;5.72;;
74922;SDS011;64715;44.760;37.678;2023-01-24T06:26:58;18.48;;;5.93;;
74922;SDS011;64715;44.760;37.678;2023-01-24T06:28:00;19.98;;;6.15;;
74922;SDS011;64715;44.760;37.678;2023-01-24T06:29:01;91.68;;;13.63;;
74922;SDS011;64715;44.760;37.678;2023-01-24T06:30:03;33.53;;;9.10;;
74922;SDS011;64715;44.760;37.678;2023-01-24T06:31:09;25.80;;;6.30;;